Terminal Aerodrome Forecast
Issued by NWS Jackson, MS

Home | Current Version | Previous Version | Text Only | Print | Product List | Glossary On
Versions: 1 2 3 4 5 6 7 8 9 10 11 12 13 14 15
000
FTUS44 KJAN 181700
TAFMEI
TAF
KMEI 181720Z 1818/1918 03009KT P6SM VCSH OVC007
     FM182100 03010KT P6SM VCSH OVC050
     FM190100 03004KT P6SM OVC050
     FM190600 00000KT P6SM SCT100
     FM190800 33003KT P6SM SKC=

USA.gov is the U.S. government's official web portal to all federal, state and local government web resources and services.